PWSweather.com
Personal Weather Stations
Station Observations
ERMELO
Centre, ErmeloNL

CentreErmeloNL

Lat: 52.2986655, Lon: 5.6296194

Elevation: 41

Station Type: Oregon WMR200

www.meteoermelo.nl

High Low Average
Temperature 74.3°F23.5°F 50.9°F10.5°F 63.4°F17.4°F
Dew Point 26.1°F-3.3°F 13.9°F-10.1°F 19.2°F-7.1°F
Winds 7.5 mph -12.1 mph - 0.1 mph 0.2 mph 4.9 mph 7.9 mph
Wind Gusts 17.2 mph27.7 mph 1.1 mph1.8 mph 9.1 mph14.6 mph
Humidity 26% 13% 19%
Pressure 30.36 in1028.10 in 30.27 in1025.10 in -
Precipitation 0.00 in0.00 in - -
Hour Temp Dew Point Humidity Winds Wind Gusts Pressure Precip Precip Rate Daily Precip Total
12:00 AM 57.7°F14.3°C 15.7°F-9.1°C 19% 5.0 mph E8.0 kmh E 7.8 mph12.6 kmh 30.30 in1026.1 mb 0.00 in0.0 mm 0.00 in0.0 mm 0.00 in0.0 mm
12:15 AM 57.4°F14.1°C 15.4°F-9.2°C 19% 5.1 mph E8.2 kmh E 7.8 mph12.6 kmh 30.30 in1026.1 mb 0.00 in0.0 mm 0.00 in0.0 mm 0.00 in0.0 mm
12:30 AM 57.4°F14.1°C 15.4°F-9.2°C 19% 5.6 mph E9.0 kmh E 9.6 mph15.4 kmh 30.30 in1026.1 mb 0.00 in0.0 mm 0.00 in0.0 mm 0.00 in0.0 mm
12:45 AM 57.2°F14.0°C 15.2°F-9.3°C 19% 4.5 mph E7.2 kmh E 9.4 mph15.1 kmh 30.30 in1026.1 mb 0.00 in0.0 mm 0.00 in0.0 mm 0.00 in0.0 mm
01:00 AM 56.8°F13.8°C 15.0°F-9.4°C 19% 4.4 mph ENE7.1 kmh ENE 7.6 mph12.2 kmh 30.30 in1026.1 mb 0.00 in0.0 mm 0.00 in0.0 mm 0.00 in0.0 mm
01:15 AM 56.5°F13.6°C 14.7°F-9.6°C 19% 3.4 mph E5.5 kmh E 6.5 mph10.5 kmh 30.30 in1026.1 mb 0.00 in0.0 mm 0.00 in0.0 mm 0.00 in0.0 mm
01:30 AM 56.5°F13.6°C 14.7°F-9.6°C 19% 4.4 mph ENE7.1 kmh ENE 10.1 mph16.3 kmh 30.30 in1026.1 mb 0.00 in0.0 mm 0.00 in0.0 mm 0.00 in0.0 mm
01:45 AM 56.1°F13.4°C 15.5°F-9.2°C 20% 3.6 mph E5.8 kmh E 6.3 mph10.1 kmh 30.30 in1026.1 mb 0.00 in0.0 mm 0.00 in0.0 mm 0.00 in0.0 mm
02:00 AM 55.9°F13.3°C 15.4°F-9.2°C 20% 3.6 mph ENE5.8 kmh ENE 6.5 mph10.5 kmh 30.30 in1026.1 mb 0.00 in0.0 mm 0.00 in0.0 mm 0.00 in0.0 mm
02:15 AM 55.6°F13.1°C 15.1°F-9.4°C 20% 3.9 mph ENE6.3 kmh ENE 6.0 mph9.7 kmh 30.30 in1026.1 mb 0.00 in0.0 mm 0.00 in0.0 mm 0.00 in0.0 mm
02:30 AM 55.2°F12.9°C 14.8°F-9.6°C 20% 4.0 mph ENE6.4 kmh ENE 6.3 mph10.1 kmh 30.30 in1026.1 mb 0.00 in0.0 mm 0.00 in0.0 mm 0.00 in0.0 mm
02:45 AM 55.2°F12.9°C 14.8°F-9.6°C 20% 5.0 mph E8.0 kmh E 7.6 mph12.2 kmh 30.30 in1026.1 mb 0.00 in0.0 mm 0.00 in0.0 mm 0.00 in0.0 mm
03:00 AM 55.4°F13.0°C 14.9°F-9.5°C 20% 4.8 mph E7.7 kmh E 8.7 mph14.0 kmh 30.30 in1026.1 mb 0.00 in0.0 mm 0.00 in0.0 mm 0.00 in0.0 mm
03:15 AM 55.2°F12.9°C 14.8°F-9.6°C 20% 5.8 mph E9.3 kmh E 10.5 mph16.9 kmh 30.30 in1026.1 mb 0.00 in0.0 mm 0.00 in0.0 mm 0.00 in0.0 mm
03:30 AM 55.0°F12.8°C 14.6°F-9.7°C 20% 6.7 mph E10.8 kmh E 13.0 mph20.9 kmh 30.30 in1026.1 mb 0.00 in0.0 mm 0.00 in0.0 mm 0.00 in0.0 mm
03:45 AM 54.7°F12.6°C 14.3°F-9.8°C 20% 6.5 mph E10.5 kmh E 11.0 mph17.7 kmh 30.30 in1026.1 mb 0.00 in0.0 mm 0.00 in0.0 mm 0.00 in0.0 mm
04:00 AM 54.1°F12.3°C 13.9°F-10.1°C 20% 6.2 mph E10.0 kmh E 12.3 mph19.8 kmh 30.30 in1026.1 mb 0.00 in0.0 mm 0.00 in0.0 mm 0.00 in0.0 mm
04:15 AM 53.6°F12.0°C 16.6°F-8.6°C 23% 7.2 mph E11.6 kmh E 12.5 mph20.1 kmh 30.30 in1026.1 mb 0.00 in0.0 mm 0.00 in0.0 mm 0.00 in0.0 mm
04:30 AM 53.1°F11.7°C 16.2°F-8.8°C 23% 6.7 mph E10.8 kmh E 11.4 mph18.3 kmh 30.30 in1026.1 mb 0.00 in0.0 mm 0.00 in0.0 mm 0.00 in0.0 mm
04:45 AM 52.5°F11.4°C 15.7°F-9.1°C 23% 6.6 mph E10.6 kmh E 11.0 mph17.7 kmh 30.30 in1026.1 mb 0.00 in0.0 mm 0.00 in0.0 mm 0.00 in0.0 mm
05:00 AM 52.2°F11.2°C 15.4°F-9.2°C 23% 5.2 mph E8.4 kmh E 8.5 mph13.7 kmh 30.30 in1026.1 mb 0.00 in0.0 mm 0.00 in0.0 mm 0.00 in0.0 mm
05:15 AM 51.6°F10.9°C 15.0°F-9.4°C 23% 5.6 mph E9.0 kmh E 8.7 mph14.0 kmh 30.30 in1026.1 mb 0.00 in0.0 mm 0.00 in0.0 mm 0.00 in0.0 mm
05:30 AM 51.3°F10.7°C 17.5°F-8.1°C 26% 5.7 mph E9.2 kmh E 9.6 mph15.4 kmh 30.30 in1026.1 mb 0.00 in0.0 mm 0.00 in0.0 mm 0.00 in0.0 mm
05:45 AM 50.9°F10.5°C 17.2°F-8.2°C 26% 5.2 mph E8.4 kmh E 8.7 mph14.0 kmh 30.33 in1027.1 mb 0.00 in0.0 mm 0.00 in0.0 mm 0.00 in0.0 mm
06:00 AM 50.9°F10.5°C 17.2°F-8.2°C 26% 5.6 mph E9.0 kmh E 9.8 mph15.8 kmh 30.33 in1027.1 mb 0.00 in0.0 mm 0.00 in0.0 mm 0.00 in0.0 mm
06:15 AM 51.3°F10.7°C 17.5°F-8.1°C 26% 5.2 mph E8.4 kmh E 9.2 mph14.8 kmh 30.33 in1027.1 mb 0.00 in0.0 mm 0.00 in0.0 mm 0.00 in0.0 mm
06:30 AM 52.0°F11.1°C 18.1°F-7.7°C 26% 5.8 mph E9.3 kmh E 9.4 mph15.1 kmh 30.33 in1027.1 mb 0.00 in0.0 mm 0.00 in0.0 mm 0.00 in0.0 mm
06:45 AM 52.7°F11.5°C 18.7°F-7.4°C 26% 6.1 mph E9.8 kmh E 10.7 mph17.2 kmh 30.33 in1027.1 mb 0.00 in0.0 mm 0.00 in0.0 mm 0.00 in0.0 mm
07:00 AM 53.8°F12.1°C 19.7°F-6.8°C 26% 5.1 mph E8.2 kmh E 10.7 mph17.2 kmh 30.33 in1027.1 mb 0.00 in0.0 mm 0.00 in0.0 mm 0.00 in0.0 mm
07:15 AM 54.7°F12.6°C 19.5°F-6.9°C 25% 5.2 mph E8.4 kmh E 10.3 mph16.6 kmh 30.33 in1027.1 mb 0.00 in0.0 mm 0.00 in0.0 mm 0.00 in0.0 mm
07:30 AM 55.6°F13.1°C 20.3°F-6.5°C 25% 5.3 mph E8.5 kmh E 8.1 mph13.0 kmh 30.33 in1027.1 mb 0.00 in0.0 mm 0.00 in0.0 mm 0.00 in0.0 mm
07:45 AM 56.8°F13.8°C 21.3°F-5.9°C 25% 4.9 mph E7.9 kmh E 11.0 mph17.7 kmh 30.33 in1027.1 mb 0.00 in0.0 mm 0.00 in0.0 mm 0.00 in0.0 mm
08:00 AM 57.9°F14.4°C 22.3°F-5.4°C 25% 5.2 mph E8.4 kmh E 11.4 mph18.3 kmh 30.33 in1027.1 mb 0.00 in0.0 mm 0.00 in0.0 mm 0.00 in0.0 mm
08:15 AM 59.4°F15.2°C 22.5°F-5.3°C 24% 6.3 mph E10.1 kmh E 12.5 mph20.1 kmh 30.36 in1028.1 mb 0.00 in0.0 mm 0.00 in0.0 mm 0.00 in0.0 mm
08:30 AM 60.8°F16.0°C 23.7°F-4.6°C 24% 5.5 mph E8.9 kmh E 11.0 mph17.7 kmh 30.36 in1028.1 mb 0.00 in0.0 mm 0.00 in0.0 mm 0.00 in0.0 mm
08:45 AM 61.9°F16.6°C 23.6°F-4.7°C 23% 4.8 mph ESE7.7 kmh ESE 10.3 mph16.6 kmh 30.36 in1028.1 mb 0.00 in0.0 mm 0.00 in0.0 mm 0.00 in0.0 mm
09:00 AM 63.1°F17.3°C 24.7°F-4.1°C 23% 5.6 mph ESE9.0 kmh ESE 10.7 mph17.2 kmh 30.36 in1028.1 mb 0.00 in0.0 mm 0.00 in0.0 mm 0.00 in0.0 mm
09:15 AM 64.8°F18.2°C 26.1°F-3.3°C 23% 4.2 mph E6.8 kmh E 7.8 mph12.6 kmh 30.36 in1028.1 mb 0.00 in0.0 mm 0.00 in0.0 mm 0.00 in0.0 mm
09:30 AM 65.7°F18.7°C 23.5°F-4.7°C 20% 4.3 mph E6.9 kmh E 7.2 mph11.6 kmh 30.36 in1028.1 mb 0.00 in0.0 mm 0.00 in0.0 mm 0.00 in0.0 mm
09:45 AM 67.1°F19.5°C 24.6°F-4.1°C 20% 4.2 mph E6.8 kmh E 7.8 mph12.6 kmh 30.36 in1028.1 mb 0.00 in0.0 mm 0.00 in0.0 mm 0.00 in0.0 mm
10:00 AM 67.8°F19.9°C 25.2°F-3.8°C 20% 4.2 mph E6.8 kmh E 6.7 mph10.8 kmh 30.36 in1028.1 mb 0.00 in0.0 mm 0.00 in0.0 mm 0.00 in0.0 mm
10:15 AM 68.7°F20.4°C 26.0°F-3.3°C 20% 5.0 mph E8.0 kmh E 10.1 mph16.3 kmh 30.36 in1028.1 mb 0.00 in0.0 mm 0.00 in0.0 mm 0.00 in0.0 mm
10:30 AM 69.1°F20.6°C 22.4°F-5.3°C 17% 7.1 mph ENE11.4 kmh ENE 11.9 mph19.2 kmh 30.36 in1028.1 mb 0.00 in0.0 mm 0.00 in0.0 mm 0.00 in0.0 mm
10:45 AM 70.0°F21.1°C 23.1°F-4.9°C 17% 6.2 mph E10.0 kmh E 14.1 mph22.7 kmh 30.33 in1027.1 mb 0.00 in0.0 mm 0.00 in0.0 mm 0.00 in0.0 mm
11:00 AM 70.3°F21.3°C 23.4°F-4.8°C 17% 6.5 mph ENE10.5 kmh ENE 11.0 mph17.7 kmh 30.33 in1027.1 mb 0.00 in0.0 mm 0.00 in0.0 mm 0.00 in0.0 mm
11:15 AM 71.6°F22.0°C 23.0°F-5.0°C 16% 7.5 mph ESE12.1 kmh ESE 13.6 mph21.9 kmh 30.33 in1027.1 mb 0.00 in0.0 mm 0.00 in0.0 mm 0.00 in0.0 mm
11:30 AM 71.8°F22.1°C 23.1°F-4.9°C 16% 7.3 mph E11.7 kmh E 17.2 mph27.7 kmh 30.33 in1027.1 mb 0.00 in0.0 mm 0.00 in0.0 mm 0.00 in0.0 mm
11:45 AM 71.8°F22.1°C 23.1°F-4.9°C 16% 7.3 mph ENE11.7 kmh ENE 13.0 mph20.9 kmh 30.33 in1027.1 mb 0.00 in0.0 mm 0.00 in0.0 mm 0.00 in0.0 mm
12:00 PM 72.0°F22.2°C 23.3°F-4.8°C 16% 7.2 mph E11.6 kmh E 12.8 mph20.6 kmh 30.33 in1027.1 mb 0.00 in0.0 mm 0.00 in0.0 mm 0.00 in0.0 mm
12:15 PM 72.9°F22.7°C 24.0°F-4.4°C 16% 6.2 mph E10.0 kmh E 10.7 mph17.2 kmh 30.33 in1027.1 mb 0.00 in0.0 mm 0.00 in0.0 mm 0.00 in0.0 mm
12:30 PM 72.7°F22.6°C 23.9°F-4.5°C 16% 7.2 mph E11.6 kmh E 17.0 mph27.4 kmh 30.33 in1027.1 mb 0.00 in0.0 mm 0.00 in0.0 mm 0.00 in0.0 mm
12:45 PM 73.2°F22.9°C 24.3°F-4.3°C 16% 7.1 mph SE11.4 kmh SE 11.4 mph18.3 kmh 30.33 in1027.1 mb 0.00 in0.0 mm 0.00 in0.0 mm 0.00 in0.0 mm
01:00 PM 73.4°F23.0°C 24.4°F-4.2°C 16% 6.8 mph ESE10.9 kmh ESE 14.3 mph23.0 kmh 30.33 in1027.1 mb 0.00 in0.0 mm 0.00 in0.0 mm 0.00 in0.0 mm
01:15 PM 73.6°F23.1°C 24.6°F-4.1°C 16% 5.5 mph SE8.9 kmh SE 12.3 mph19.8 kmh 30.30 in1026.1 mb 0.00 in0.0 mm 0.00 in0.0 mm 0.00 in0.0 mm
01:30 PM 73.4°F23.0°C 24.4°F-4.2°C 16% 6.0 mph ESE9.7 kmh ESE 12.3 mph19.8 kmh 30.30 in1026.1 mb 0.00 in0.0 mm 0.00 in0.0 mm 0.00 in0.0 mm
01:45 PM 73.6°F23.1°C 24.6°F-4.1°C 16% 5.2 mph ESE8.4 kmh ESE 10.1 mph16.3 kmh 30.33 in1027.1 mb 0.00 in0.0 mm 0.00 in0.0 mm 0.00 in0.0 mm
02:00 PM 73.2°F22.9°C 24.3°F-4.3°C 16% 4.7 mph SE7.6 kmh SE 8.7 mph14.0 kmh 30.30 in1026.1 mb 0.00 in0.0 mm 0.00 in0.0 mm 0.00 in0.0 mm
02:15 PM 73.2°F22.9°C 24.3°F-4.3°C 16% 4.3 mph ENE6.9 kmh ENE 7.8 mph12.6 kmh 30.30 in1026.1 mb 0.00 in0.0 mm 0.00 in0.0 mm 0.00 in0.0 mm
02:30 PM 73.4°F23.0°C 24.4°F-4.2°C 16% 7.2 mph SE11.6 kmh SE 12.5 mph20.1 kmh 30.27 in1025.1 mb 0.00 in0.0 mm 0.00 in0.0 mm 0.00 in0.0 mm
02:45 PM 73.2°F22.9°C 24.3°F-4.3°C 16% 6.1 mph SE9.8 kmh SE 12.5 mph20.1 kmh 30.30 in1026.1 mb 0.00 in0.0 mm 0.00 in0.0 mm 0.00 in0.0 mm
03:00 PM 73.4°F23.0°C 24.4°F-4.2°C 16% 4.9 mph E7.9 kmh E 12.3 mph19.8 kmh 30.30 in1026.1 mb 0.00 in0.0 mm 0.00 in0.0 mm 0.00 in0.0 mm
03:15 PM 73.4°F23.0°C 24.4°F-4.2°C 16% 5.2 mph E8.4 kmh E 11.0 mph17.7 kmh 30.30 in1026.1 mb 0.00 in0.0 mm 0.00 in0.0 mm 0.00 in0.0 mm
03:30 PM 73.6°F23.1°C 19.7°F-6.8°C 13% 6.9 mph E11.1 kmh E 12.8 mph20.6 kmh 30.30 in1026.1 mb 0.00 in0.0 mm 0.00 in0.0 mm 0.00 in0.0 mm
04:00 PM 74.3°F23.5°C 20.2°F-6.6°C 13% 6.7 mph ESE10.8 kmh ESE 15.4 mph24.8 kmh 30.30 in1026.1 mb 0.00 in0.0 mm 0.00 in0.0 mm 0.00 in0.0 mm
04:15 PM 74.3°F23.5°C 20.2°F-6.6°C 13% 5.2 mph ESE8.4 kmh ESE 8.7 mph14.0 kmh 30.30 in1026.1 mb 0.00 in0.0 mm 0.00 in0.0 mm 0.00 in0.0 mm
04:30 PM 74.3°F23.5°C 20.2°F-6.6°C 13% 7.2 mph SE11.6 kmh SE 14.8 mph23.8 kmh 30.30 in1026.1 mb 0.00 in0.0 mm 0.00 in0.0 mm 0.00 in0.0 mm
04:45 PM 74.1°F23.4°C 20.1°F-6.6°C 13% 6.7 mph E10.8 kmh E 13.2 mph21.2 kmh 30.30 in1026.1 mb 0.00 in0.0 mm 0.00 in0.0 mm 0.00 in0.0 mm
05:00 PM 74.3°F23.5°C 20.2°F-6.6°C 13% 5.5 mph SE8.9 kmh SE 9.8 mph15.8 kmh 30.27 in1025.1 mb 0.00 in0.0 mm 0.00 in0.0 mm 0.00 in0.0 mm
05:15 PM 73.9°F23.3°C 19.9°F-6.7°C 13% 6.6 mph E10.6 kmh E 9.8 mph15.8 kmh 30.30 in1026.1 mb 0.00 in0.0 mm 0.00 in0.0 mm 0.00 in0.0 mm
05:30 PM 73.6°F23.1°C 19.7°F-6.8°C 13% 5.0 mph ESE8.0 kmh ESE 10.3 mph16.6 kmh 30.30 in1026.1 mb 0.00 in0.0 mm 0.00 in0.0 mm 0.00 in0.0 mm
05:45 PM 73.2°F22.9°C 19.4°F-7.0°C 13% 4.8 mph E7.7 kmh E 9.8 mph15.8 kmh 30.30 in1026.1 mb 0.00 in0.0 mm 0.00 in0.0 mm 0.00 in0.0 mm
06:00 PM 72.7°F22.6°C 19.0°F-7.2°C 13% 5.7 mph ESE9.2 kmh ESE 10.3 mph16.6 kmh 30.30 in1026.1 mb 0.00 in0.0 mm 0.00 in0.0 mm 0.00 in0.0 mm
06:15 PM 72.3°F22.4°C 20.4°F-6.4°C 14% 3.7 mph E6.0 kmh E 6.5 mph10.5 kmh 30.30 in1026.1 mb 0.00 in0.0 mm 0.00 in0.0 mm 0.00 in0.0 mm
06:30 PM 72.0°F22.2°C 20.1°F-6.6°C 14% 5.2 mph SE8.4 kmh SE 13.0 mph20.9 kmh 30.30 in1026.1 mb 0.00 in0.0 mm 0.00 in0.0 mm 0.00 in0.0 mm
06:45 PM 71.2°F21.8°C 19.5°F-6.9°C 14% 3.4 mph ESE5.5 kmh ESE 6.0 mph9.7 kmh 30.30 in1026.1 mb 0.00 in0.0 mm 0.00 in0.0 mm 0.00 in0.0 mm
07:00 PM 70.5°F21.4°C 19.0°F-7.2°C 14% 4.1 mph E6.6 kmh E 6.0 mph9.7 kmh 30.30 in1026.1 mb 0.00 in0.0 mm 0.00 in0.0 mm 0.00 in0.0 mm
07:15 PM 69.3°F20.7°C 18.0°F-7.8°C 14% 2.4 mph E3.9 kmh E 3.8 mph6.1 kmh 30.30 in1026.1 mb 0.00 in0.0 mm 0.00 in0.0 mm 0.00 in0.0 mm
07:30 PM 67.8°F19.9°C 18.4°F-7.6°C 15% 2.5 mph ENE4.0 kmh ENE 3.6 mph5.8 kmh 30.30 in1026.1 mb 0.00 in0.0 mm 0.00 in0.0 mm 0.00 in0.0 mm
07:45 PM 66.4°F19.1°C 17.3°F-8.2°C 15% 1.2 mph ENE1.9 kmh ENE 2.5 mph4.0 kmh 30.27 in1025.1 mb 0.00 in0.0 mm 0.00 in0.0 mm 0.00 in0.0 mm
08:00 PM 64.2°F17.9°C 15.5°F-9.2°C 15% 0.1 mph ENE0.2 kmh ENE 1.1 mph1.8 kmh 30.30 in1026.1 mb 0.00 in0.0 mm 0.00 in0.0 mm 0.00 in0.0 mm
08:15 PM 63.0°F17.2°C 16.0°F-8.9°C 16% 0.4 mph ENE0.6 kmh ENE 2.0 mph3.2 kmh 30.30 in1026.1 mb 0.00 in0.0 mm 0.00 in0.0 mm 0.00 in0.0 mm
08:30 PM 61.7°F16.5°C 15.0°F-9.4°C 16% 1.9 mph ENE3.1 kmh ENE 3.6 mph5.8 kmh 30.33 in1027.1 mb 0.00 in0.0 mm 0.00 in0.0 mm 0.00 in0.0 mm
08:45 PM 61.5°F16.4°C 14.8°F-9.6°C 16% 2.7 mph ENE4.3 kmh ENE 4.7 mph7.6 kmh 30.33 in1027.1 mb 0.00 in0.0 mm 0.00 in0.0 mm 0.00 in0.0 mm
09:00 PM 61.0°F16.1°C 14.4°F-9.8°C 16% 2.3 mph ENE3.7 kmh ENE 4.3 mph6.9 kmh 30.33 in1027.1 mb 0.00 in0.0 mm 0.00 in0.0 mm 0.00 in0.0 mm
09:15 PM 60.8°F16.0°C 14.3°F-9.8°C 16% 2.6 mph NE4.2 kmh NE 4.3 mph6.9 kmh 30.33 in1027.1 mb 0.00 in0.0 mm 0.00 in0.0 mm 0.00 in0.0 mm
09:30 PM 60.4°F15.8°C 14.0°F-10.0°C 16% 3.0 mph ENE4.8 kmh ENE 3.8 mph6.1 kmh 30.33 in1027.1 mb 0.00 in0.0 mm 0.00 in0.0 mm 0.00 in0.0 mm
09:45 PM 59.5°F15.3°C 14.6°F-9.7°C 17% 2.1 mph E3.4 kmh E 3.8 mph6.1 kmh 30.33 in1027.1 mb 0.00 in0.0 mm 0.00 in0.0 mm 0.00 in0.0 mm
10:00 PM 59.0°F15.0°C 14.2°F-9.9°C 17% 3.5 mph E5.6 kmh E 6.3 mph10.1 kmh 30.33 in1027.1 mb 0.00 in0.0 mm 0.00 in0.0 mm 0.00 in0.0 mm
10:15 PM 59.7°F15.4°C 17.3°F-8.2°C 19% 3.5 mph ENE5.6 kmh ENE 5.6 mph9.0 kmh 30.33 in1027.1 mb 0.00 in0.0 mm 0.00 in0.0 mm 0.00 in0.0 mm
10:30 PM 59.7°F15.4°C 17.3°F-8.2°C 19% 3.0 mph E4.8 kmh E 4.5 mph7.2 kmh 30.33 in1027.1 mb 0.00 in0.0 mm 0.00 in0.0 mm 0.00 in0.0 mm
10:45 PM 58.8°F14.9°C 16.6°F-8.6°C 19% 2.6 mph E4.2 kmh E 4.0 mph6.4 kmh 30.33 in1027.1 mb 0.00 in0.0 mm 0.00 in0.0 mm 0.00 in0.0 mm
11:00 PM 58.3°F14.6°C 16.1°F-8.8°C 19% 2.6 mph E4.2 kmh E 4.0 mph6.4 kmh 30.33 in1027.1 mb 0.00 in0.0 mm 0.00 in0.0 mm 0.00 in0.0 mm
11:15 PM 58.1°F14.5°C 16.0°F-8.9°C 19% 3.0 mph E4.8 kmh E 6.3 mph10.1 kmh 30.33 in1027.1 mb 0.00 in0.0 mm 0.00 in0.0 mm 0.00 in0.0 mm
11:30 PM 57.7°F14.3°C 15.7°F-9.1°C 19% 3.0 mph ENE4.8 kmh ENE 4.3 mph6.9 kmh 30.36 in1028.1 mb 0.00 in0.0 mm 0.00 in0.0 mm 0.00 in0.0 mm
11:45 PM 57.2°F14.0°C 18.6°F-7.4°C 22% 3.0 mph ENE4.8 kmh ENE 4.7 mph7.6 kmh 30.33 in1027.1 mb 0.00 in0.0 mm 0.00 in0.0 mm 0.00 in0.0 mm